createdAt,value
2023-11-27T00:00:33.925Z,8.40
2023-11-27T00:01:23.267Z,11.60
2023-11-27T00:02:23.237Z,9.70
2023-11-27T00:03:23.160Z,9.30
2023-11-27T00:04:23.182Z,8.10
2023-11-27T00:05:23.107Z,10.80
2023-11-27T00:06:23.080Z,9.10
2023-11-27T00:07:23.049Z,10.20
2023-11-27T00:08:23.026Z,8.20
2023-11-27T00:09:22.990Z,9.20
2023-11-27T00:10:23.021Z,10.40
2023-11-27T00:11:22.927Z,8.20
2023-11-27T00:12:22.907Z,9.50
2023-11-27T00:13:22.908Z,10.30
2023-11-27T00:14:22.922Z,9.80
2023-11-27T00:15:22.815Z,9.80
2023-11-27T00:16:22.950Z,9.20
2023-11-27T00:17:22.750Z,8.80
2023-11-27T00:18:22.759Z,10.10
2023-11-27T00:19:22.688Z,7.40
2023-11-27T00:20:22.762Z,9.10
2023-11-27T00:21:22.644Z,8.80
2023-11-27T00:22:22.671Z,9.70
2023-11-27T00:23:22.595Z,8.70
2023-11-27T00:24:22.584Z,11.20
2023-11-27T00:25:22.557Z,9.10
2023-11-27T00:26:22.503Z,8.20
2023-11-27T00:27:22.446Z,8.30
2023-11-27T00:28:22.564Z,8.80
2023-11-27T00:29:22.400Z,7.90
2023-11-27T00:30:22.424Z,9.20
2023-11-27T00:31:22.524Z,8.70
2023-11-27T00:32:22.363Z,9.70
2023-11-27T00:33:22.397Z,9.50
2023-11-27T00:34:22.384Z,7.90
2023-11-27T00:35:22.273Z,9.80
2023-11-27T00:36:22.268Z,9.40
2023-11-27T00:37:22.225Z,10.10
2023-11-27T00:38:22.175Z,9.20
2023-11-27T00:39:22.096Z,9.00
2023-11-27T00:40:22.153Z,11.20
2023-11-27T00:41:22.041Z,10.70
2023-11-27T00:42:22.110Z,11.10
2023-11-27T00:43:22.036Z,9.30
2023-11-27T00:44:22.021Z,9.80
2023-11-27T00:45:21.932Z,10.20
2023-11-27T00:46:21.969Z,13.70
2023-11-27T00:47:21.869Z,10.60
2023-11-27T00:48:21.841Z,10.30
2023-11-27T00:49:21.831Z,10.30
2023-11-27T00:50:21.876Z,9.30
2023-11-27T00:51:21.742Z,9.20
2023-11-27T00:52:21.852Z,8.50
2023-11-27T00:53:21.697Z,10.80
2023-11-27T00:54:21.686Z,11.10
2023-11-27T00:55:21.651Z,10.80
2023-11-27T00:56:21.703Z,9.10
2023-11-27T00:57:21.561Z,10.00
2023-11-27T00:58:21.635Z,9.90
2023-11-27T00:59:21.511Z,10.60
2023-11-27T01:00:21.527Z,10.50
2023-11-27T01:01:21.478Z,11.80
2023-11-27T01:02:21.754Z,13.80
2023-11-27T01:03:21.425Z,11.60
2023-11-27T01:04:21.465Z,17.10
2023-11-27T01:05:21.380Z,11.80
2023-11-27T01:06:21.358Z,12.00
2023-11-27T01:07:21.299Z,13.80
2023-11-27T01:08:21.285Z,12.00
2023-11-27T01:09:21.218Z,13.50
2023-11-27T01:10:21.302Z,10.80
2023-11-27T01:11:21.166Z,12.70
2023-11-27T01:12:21.200Z,10.80
2023-11-27T01:13:21.167Z,12.90
2023-11-27T01:14:21.117Z,12.10
2023-11-27T01:15:21.058Z,12.80
2023-11-27T01:16:21.108Z,13.20
2023-11-27T01:17:20.983Z,13.20
2023-11-27T01:18:21.036Z,13.70
2023-11-27T01:19:20.956Z,9.00
2023-11-27T01:20:21.056Z,10.60
2023-11-27T01:21:20.865Z,13.10
2023-11-27T01:22:20.879Z,11.80
2023-11-27T01:23:20.801Z,13.60
2023-11-27T01:24:20.780Z,12.80
2023-11-27T01:25:20.806Z,11.70
2023-11-27T01:26:20.792Z,12.60
2023-11-27T01:27:20.690Z,12.50
2023-11-27T01:28:20.735Z,12.30
2023-11-27T01:29:20.624Z,12.10
2023-11-27T01:30:20.641Z,11.50
2023-11-27T01:31:20.605Z,13.70
2023-11-27T01:32:20.657Z,12.80
2023-11-27T01:33:20.624Z,12.70
2023-11-27T01:34:20.601Z,12.60
2023-11-27T01:35:20.448Z,12.10
2023-11-27T01:36:20.459Z,9.80
2023-11-27T01:37:20.434Z,15.80
2023-11-27T01:38:20.367Z,12.10
2023-11-27T01:39:20.337Z,12.70
2023-11-27T01:40:20.426Z,14.80
2023-11-27T01:41:20.269Z,11.90
2023-11-27T01:42:20.294Z,11.90
2023-11-27T01:43:20.249Z,12.00
2023-11-27T01:44:20.268Z,15.20
2023-11-27T01:45:20.169Z,10.90
2023-11-27T01:46:20.382Z,13.00
2023-11-27T01:47:20.107Z,11.30
2023-11-27T01:48:20.205Z,12.40
2023-11-27T01:49:20.076Z,11.20
2023-11-27T01:50:20.049Z,14.40
2023-11-27T01:51:19.971Z,14.20
2023-11-27T01:52:20.011Z,11.80
2023-11-27T01:53:19.908Z,11.40
2023-11-27T01:54:20.027Z,11.10
2023-11-27T01:55:19.894Z,11.30
2023-11-27T01:56:19.882Z,13.70
2023-11-27T01:57:19.791Z,14.60
2023-11-27T01:58:19.844Z,12.20
2023-11-27T01:59:19.741Z,14.40
2023-11-27T02:00:19.811Z,11.90
2023-11-27T02:01:19.723Z,10.00
2023-11-27T02:02:19.966Z,11.10
2023-11-27T02:03:19.654Z,11.40
2023-11-27T02:04:19.707Z,14.60
2023-11-27T02:05:19.655Z,12.70
2023-11-27T02:06:19.568Z,11.40
2023-11-27T02:07:19.526Z,11.70
2023-11-27T02:08:19.585Z,11.50
2023-11-27T02:10:51.091Z,12.30
2023-11-27T02:11:51.046Z,11.90
2023-11-27T02:12:51.032Z,11.50
2023-11-27T02:13:50.966Z,10.20
2023-11-27T02:14:50.970Z,13.20
2023-11-27T02:15:50.919Z,10.20
2023-11-27T02:16:50.909Z,13.50
2023-11-27T02:17:50.906Z,10.80
2023-11-27T02:18:50.901Z,13.20
2023-11-27T02:19:50.783Z,13.90
2023-11-27T02:20:50.818Z,11.20
2023-11-27T02:21:50.758Z,11.90
2023-11-27T02:22:50.707Z,10.20
2023-11-27T02:23:50.668Z,11.00
2023-11-27T02:24:50.661Z,9.50
2023-11-27T02:25:50.622Z,11.60
2023-11-27T02:26:50.592Z,10.30
2023-11-27T02:27:50.608Z,10.80
2023-11-27T02:28:50.532Z,11.80
2023-11-27T02:29:50.501Z,11.50
2023-11-27T02:30:50.559Z,9.70
2023-11-27T02:31:50.542Z,9.90
2023-11-27T02:32:50.495Z,11.10
2023-11-27T02:33:50.435Z,10.90
2023-11-27T02:34:50.352Z,11.00
2023-11-27T02:35:50.323Z,9.80
2023-11-27T02:36:50.315Z,8.80
2023-11-27T02:37:50.270Z,11.00
2023-11-27T02:38:50.229Z,9.20
2023-11-27T02:39:50.254Z,11.20
2023-11-27T02:40:50.183Z,9.40
2023-11-27T02:41:50.143Z,9.80
2023-11-27T02:42:50.196Z,11.00
2023-11-27T02:43:50.077Z,11.10
2023-11-27T02:44:50.061Z,9.40
2023-11-27T02:45:50.132Z,10.50
2023-11-27T02:46:50.089Z,10.30
2023-11-27T02:47:49.991Z,12.40
2023-11-27T02:48:49.975Z,8.10
2023-11-27T02:49:49.910Z,9.30
2023-11-27T02:50:49.890Z,9.50
2023-11-27T02:51:49.887Z,9.60
2023-11-27T02:52:49.838Z,9.00
2023-11-27T02:53:49.791Z,9.70
2023-11-27T02:54:49.824Z,9.10
2023-11-27T02:55:49.735Z,9.50
2023-11-27T02:56:49.703Z,9.70
2023-11-27T02:57:49.743Z,9.30
2023-11-27T02:58:49.649Z,7.80
2023-11-27T02:59:49.610Z,7.30
2023-11-27T03:00:49.740Z,8.90
2023-11-27T03:01:49.760Z,8.90
2023-11-27T03:02:49.613Z,10.70
2023-11-27T03:03:49.575Z,10.70
2023-11-27T03:04:49.488Z,9.50
2023-11-27T03:05:49.437Z,9.80
2023-11-27T03:06:49.474Z,9.30
2023-11-27T03:07:49.372Z,8.20
2023-11-27T03:08:49.343Z,8.10
2023-11-27T03:09:49.373Z,9.70
2023-11-27T03:10:49.301Z,9.40
2023-11-27T03:11:49.261Z,8.00
2023-11-27T03:12:49.308Z,8.40
2023-11-27T03:13:49.195Z,9.60
2023-11-27T03:14:49.177Z,8.20
2023-11-27T03:15:49.203Z,7.50
2023-11-27T03:16:49.114Z,11.60
2023-11-27T03:17:49.139Z,9.20
2023-11-27T03:18:49.074Z,10.00
2023-11-27T03:19:49.117Z,7.10
2023-11-27T03:20:49.002Z,8.10
2023-11-27T03:21:49.013Z,9.30
2023-11-27T03:22:48.946Z,9.00
2023-11-27T03:23:48.915Z,9.40
2023-11-27T03:24:48.931Z,7.70
2023-11-27T03:25:48.844Z,9.00
2023-11-27T03:26:48.847Z,7.90
2023-11-27T03:27:48.833Z,8.70
2023-11-27T03:28:48.763Z,8.80
2023-11-27T03:29:48.715Z,9.90
2023-11-27T03:30:48.753Z,12.10
2023-11-27T03:31:48.776Z,8.30
2023-11-27T03:32:48.681Z,8.60
2023-11-27T03:33:48.628Z,9.20
2023-11-27T03:34:48.583Z,9.30
2023-11-27T03:35:48.545Z,8.90
2023-11-27T03:36:48.530Z,9.60
2023-11-27T03:37:48.500Z,8.00
2023-11-27T03:38:48.452Z,10.30
2023-11-27T03:39:48.452Z,8.00
2023-11-27T03:40:48.409Z,8.70
2023-11-27T03:41:48.365Z,10.00
2023-11-27T03:42:48.397Z,8.40
2023-11-27T03:43:48.296Z,7.30
2023-11-27T03:44:48.290Z,9.20
2023-11-27T03:45:48.302Z,10.40
2023-11-27T03:46:48.300Z,8.20
2023-11-27T03:47:48.237Z,9.10
2023-11-27T03:48:48.203Z,10.70
2023-11-27T03:49:48.123Z,10.90
2023-11-27T03:50:48.119Z,8.50
2023-11-27T03:51:48.151Z,8.50
2023-11-27T03:52:48.046Z,10.80
2023-11-27T03:53:48.009Z,9.30
2023-11-27T03:54:48.046Z,8.10
2023-11-27T03:55:47.955Z,8.70
2023-11-27T03:56:47.966Z,10.80
2023-11-27T03:57:47.919Z,8.90
2023-11-27T03:58:47.858Z,8.20
2023-11-27T03:59:47.833Z,8.80
2023-11-27T04:00:47.853Z,11.50
2023-11-27T04:01:47.837Z,8.20
2023-11-27T04:02:47.879Z,9.70
2023-11-27T04:03:47.750Z,11.30
2023-11-27T04:04:47.748Z,7.20
2023-11-27T04:05:47.652Z,9.90
2023-11-27T04:06:47.641Z,8.40
2023-11-27T04:07:47.593Z,9.70
2023-11-27T04:08:47.564Z,9.40
2023-11-27T04:09:47.561Z,9.20
2023-11-27T04:10:47.512Z,8.70
2023-11-27T04:11:49.187Z,11.50
2023-11-27T04:12:47.516Z,9.90
2023-11-27T04:13:47.411Z,9.40
2023-11-27T04:14:47.390Z,9.50
2023-11-27T04:15:47.371Z,11.80
2023-11-27T04:16:47.416Z,8.80
2023-11-27T04:17:47.312Z,9.20
2023-11-27T04:18:47.308Z,10.00
2023-11-27T04:19:47.220Z,9.10
2023-11-27T04:20:47.220Z,10.80
2023-11-27T04:21:47.243Z,11.50
2023-11-27T04:22:47.153Z,11.90
2023-11-27T04:23:47.118Z,9.00
2023-11-27T04:24:47.132Z,10.90
2023-11-27T04:25:47.053Z,8.90
2023-11-27T04:26:47.031Z,11.50
2023-11-27T04:27:47.049Z,10.40
2023-11-27T04:28:46.974Z,8.40
2023-11-27T04:29:46.962Z,9.10
2023-11-27T04:30:46.942Z,8.90
2023-11-27T04:31:46.952Z,9.60
2023-11-27T04:32:46.898Z,8.90
2023-11-27T04:33:46.830Z,8.70
2023-11-27T04:34:46.795Z,7.30
2023-11-27T04:35:46.766Z,10.70
2023-11-27T04:36:46.758Z,9.80
2023-11-27T04:37:46.710Z,13.40
2023-11-27T04:38:46.682Z,9.50
2023-11-27T04:39:46.647Z,8.60
2023-11-27T04:40:46.625Z,8.90
2023-11-27T04:41:46.574Z,7.50
2023-11-27T04:42:46.554Z,10.20
2023-11-27T04:43:46.529Z,8.30
2023-11-27T04:44:46.490Z,9.70
2023-11-27T04:45:46.459Z,8.90
2023-11-27T04:46:46.540Z,9.60
2023-11-27T04:47:46.423Z,7.30
2023-11-27T04:48:46.376Z,9.40
2023-11-27T04:49:46.340Z,10.30
2023-11-27T04:50:46.314Z,9.70
2023-11-27T04:51:46.269Z,10.40
2023-11-27T04:52:46.249Z,10.70
2023-11-27T04:53:46.224Z,10.90
2023-11-27T04:54:46.189Z,9.20
2023-11-27T04:55:46.163Z,10.20
2023-11-27T04:56:46.134Z,7.40
2023-11-27T04:57:46.120Z,8.30
2023-11-27T04:58:46.084Z,8.00
2023-11-27T04:59:46.045Z,8.00
2023-11-27T05:00:46.020Z,9.10
2023-11-27T05:01:46.071Z,8.40
2023-11-27T05:02:46.115Z,9.00
2023-11-27T05:03:45.933Z,9.10
2023-11-27T05:04:46.013Z,7.80
2023-11-27T05:05:45.896Z,11.10
2023-11-27T05:06:45.842Z,8.80
2023-11-27T05:07:45.797Z,9.80
2023-11-27T05:08:45.780Z,7.90
2023-11-27T05:09:45.741Z,7.00
2023-11-27T05:10:48.236Z,8.70
2023-11-27T05:11:45.676Z,10.20
2023-11-27T05:12:45.658Z,9.30
2023-11-27T05:13:45.618Z,8.30
2023-11-27T05:14:45.594Z,9.80
2023-11-27T05:15:45.566Z,7.80
2023-11-27T05:16:45.546Z,7.30
2023-11-27T05:17:45.547Z,10.70
2023-11-27T05:18:45.480Z,8.00
2023-11-27T05:19:45.464Z,7.30
2023-11-27T05:20:45.416Z,9.10
2023-11-27T05:21:45.385Z,7.10
2023-11-27T05:22:45.351Z,8.30
2023-11-27T05:23:45.326Z,9.70
2023-11-27T05:24:45.291Z,9.30
2023-11-27T05:25:45.264Z,10.50
2023-11-27T05:26:45.237Z,8.80
2023-11-27T05:27:45.203Z,7.10
2023-11-27T05:28:45.175Z,8.70
2023-11-27T05:29:45.142Z,8.10
2023-11-27T05:30:45.142Z,9.20
2023-11-27T05:31:45.166Z,7.10
2023-11-27T05:32:45.086Z,7.70
2023-11-27T05:33:45.021Z,6.90
2023-11-27T05:34:45.001Z,7.70
2023-11-27T05:35:44.987Z,7.20
2023-11-27T05:36:44.956Z,6.80
2023-11-27T05:37:44.906Z,6.90
2023-11-27T05:38:44.884Z,7.00
2023-11-27T05:39:44.896Z,7.60
2023-11-27T05:40:44.823Z,7.70
2023-11-27T05:41:44.790Z,7.10
2023-11-27T05:42:44.797Z,6.80
2023-11-27T05:43:44.723Z,9.50
2023-11-27T05:44:44.702Z,8.60
2023-11-27T05:45:44.673Z,9.10
2023-11-27T05:46:44.717Z,7.70
2023-11-27T05:47:44.786Z,9.20
2023-11-27T05:48:44.574Z,5.70
2023-11-27T05:49:44.559Z,7.30
2023-11-27T05:50:44.522Z,8.60
2023-11-27T05:51:44.499Z,6.30
2023-11-27T05:52:44.470Z,7.40
2023-11-27T05:53:44.452Z,10.00
2023-11-27T05:54:44.402Z,7.40
2023-11-27T05:55:44.377Z,6.60
2023-11-27T05:56:44.337Z,7.70
2023-11-27T05:57:44.308Z,7.60
2023-11-27T05:58:44.331Z,8.60
2023-11-27T05:59:44.263Z,6.70
2023-11-27T06:00:44.230Z,7.20
2023-11-27T06:01:44.273Z,6.20
2023-11-27T06:02:44.182Z,6.70
2023-11-27T06:03:44.168Z,6.80
2023-11-27T06:04:44.136Z,6.80
2023-11-27T06:05:44.081Z,6.70
2023-11-27T06:06:44.064Z,6.00
2023-11-27T06:07:44.009Z,7.00
2023-11-27T06:08:43.983Z,8.50
2023-11-27T06:09:43.946Z,6.60
2023-11-27T06:10:43.970Z,7.30
2023-11-27T06:11:43.902Z,7.20
2023-11-27T06:12:43.885Z,7.00
2023-11-27T06:13:43.823Z,8.30
2023-11-27T06:14:43.899Z,6.10
2023-11-27T06:15:43.808Z,6.40
2023-11-27T06:16:43.859Z,5.30
2023-11-27T06:17:43.717Z,8.10
2023-11-27T06:18:43.739Z,5.80
2023-11-27T06:19:43.695Z,5.60
2023-11-27T06:20:43.748Z,6.70
2023-11-27T06:21:43.609Z,6.40
2023-11-27T06:22:43.653Z,6.70
2023-11-27T06:23:43.534Z,5.70
2023-11-27T06:24:43.578Z,6.80
2023-11-27T06:25:43.556Z,7.30
2023-11-27T06:26:43.552Z,6.10
2023-11-27T06:27:43.456Z,5.50
2023-11-27T06:28:43.436Z,6.50
2023-11-27T06:29:43.362Z,5.40
2023-11-27T06:30:43.449Z,8.10
2023-11-27T06:31:43.365Z,6.80
2023-11-27T06:32:43.442Z,6.80
2023-11-27T06:33:43.336Z,6.40
2023-11-27T06:34:43.265Z,7.30
2023-11-27T06:35:43.182Z,5.70
2023-11-27T06:36:43.243Z,9.00
2023-11-27T06:37:43.113Z,10.20
2023-11-27T06:38:43.174Z,8.10
2023-11-27T06:39:43.074Z,9.70
2023-11-27T06:40:47.626Z,8.50
2023-11-27T06:41:43.004Z,6.20
2023-11-27T06:42:42.995Z,8.90
2023-11-27T06:43:42.937Z,6.80
2023-11-27T06:44:42.991Z,8.20
2023-11-27T06:45:42.911Z,7.10
2023-11-27T06:46:42.958Z,5.80
2023-11-27T06:47:42.885Z,7.60
2023-11-27T06:48:42.821Z,7.80
2023-11-27T06:49:42.763Z,8.00
2023-11-27T06:50:42.853Z,6.00
2023-11-27T06:51:42.712Z,6.90
2023-11-27T06:52:42.747Z,6.50
2023-11-27T06:53:42.648Z,7.50
2023-11-27T06:54:42.673Z,6.70
2023-11-27T06:55:42.589Z,6.60
2023-11-27T06:56:42.574Z,5.50
2023-11-27T06:57:42.533Z,6.20
2023-11-27T06:58:42.668Z,6.70
2023-11-27T06:59:42.468Z,5.90
2023-11-27T07:00:42.524Z,6.70
2023-11-27T07:01:42.576Z,6.70
2023-11-27T07:02:42.497Z,4.70
2023-11-27T07:03:42.501Z,5.40
2023-11-27T07:04:42.363Z,5.80
2023-11-27T07:05:42.292Z,8.70
2023-11-27T07:06:42.337Z,13.50
2023-11-27T07:07:42.238Z,7.80
2023-11-27T07:08:42.252Z,12.10
2023-11-27T07:09:42.181Z,18.10
2023-11-27T07:10:42.255Z,17.50
2023-11-27T07:11:42.102Z,15.60
2023-11-27T07:12:42.263Z,22.30
2023-11-27T07:13:42.067Z,10.30
2023-11-27T07:14:42.061Z,5.10
2023-11-27T07:15:41.992Z,6.80
2023-11-27T07:16:42.015Z,5.50
2023-11-27T07:17:41.980Z,6.50
2023-11-27T07:18:42.004Z,10.40
2023-11-27T07:19:41.896Z,8.70
2023-11-27T07:20:41.901Z,11.90
2023-11-27T07:21:41.822Z,9.20
2023-11-27T07:22:41.813Z,5.80
2023-11-27T07:23:41.756Z,4.90
2023-11-27T07:24:41.821Z,6.00
2023-11-27T07:25:41.699Z,6.10
2023-11-27T07:26:42.755Z,6.00
2023-11-27T07:27:41.636Z,7.00
2023-11-27T07:28:41.645Z,5.90
2023-11-27T07:29:41.575Z,5.30
2023-11-27T07:30:41.667Z,6.50
2023-11-27T07:31:41.611Z,5.00
2023-11-27T07:32:41.603Z,12.60
2023-11-27T07:33:41.460Z,7.20
2023-11-27T07:34:41.483Z,10.50
2023-11-27T07:35:41.409Z,10.00
2023-11-27T07:36:41.395Z,8.30
2023-11-27T07:37:41.356Z,8.20
2023-11-27T07:38:41.408Z,7.30
2023-11-27T07:39:41.278Z,13.00
2023-11-27T07:40:41.379Z,5.50
2023-11-27T07:41:41.222Z,15.50
2023-11-27T07:42:41.244Z,4.40
2023-11-27T07:43:41.222Z,5.30
2023-11-27T07:44:41.146Z,22.20
2023-11-27T07:45:41.306Z,10.40
2023-11-27T07:46:41.213Z,25.70
2023-11-27T07:47:41.051Z,13.20
2023-11-27T07:48:41.073Z,27.90
2023-11-27T07:49:40.989Z,21.90
2023-11-27T07:50:40.987Z,17.70
2023-11-27T07:51:40.947Z,26.80
2023-11-27T07:52:40.996Z,16.70
2023-11-27T07:53:40.868Z,22.00
2023-11-27T07:54:40.915Z,16.00
2023-11-27T07:55:40.845Z,7.80
2023-11-27T07:56:40.836Z,4.80
2023-11-27T07:57:40.781Z,5.90
2023-11-27T07:58:40.769Z,5.00
2023-11-27T07:59:40.707Z,4.70
2023-11-27T08:00:40.752Z,5.20
2023-11-27T08:01:40.746Z,4.00
2023-11-27T08:02:40.659Z,4.30
2023-11-27T08:03:40.596Z,3.60
2023-11-27T08:04:40.648Z,4.50
2023-11-27T08:05:40.561Z,3.50
2023-11-27T08:06:40.596Z,5.80
2023-11-27T08:07:40.458Z,4.90
2023-11-27T08:08:40.502Z,3.80
2023-11-27T08:09:40.388Z,4.20
2023-11-27T08:10:40.453Z,3.80
2023-11-27T08:11:40.331Z,3.80
2023-11-27T08:12:40.319Z,5.70
2023-11-27T08:13:40.288Z,3.70
2023-11-27T08:14:40.340Z,3.20
2023-11-27T08:15:40.228Z,4.10
2023-11-27T08:16:40.364Z,4.40
2023-11-27T08:17:40.164Z,3.20
2023-11-27T08:18:42.000Z,4.30
2023-11-27T08:19:40.117Z,3.30
2023-11-27T08:20:40.214Z,3.50
2023-11-27T08:21:40.045Z,3.50
2023-11-27T08:22:40.098Z,4.00
2023-11-27T08:23:39.984Z,3.50
2023-11-27T08:24:40.012Z,4.10
2023-11-27T08:25:40.008Z,3.40
2023-11-27T08:26:39.910Z,4.90
2023-11-27T08:27:39.856Z,4.10
2023-11-27T08:28:39.951Z,3.50
2023-11-27T08:29:39.803Z,3.70
2023-11-27T08:30:39.890Z,4.80
2023-11-27T08:31:39.876Z,3.70
2023-11-27T08:32:39.790Z,3.50
2023-11-27T08:33:39.728Z,9.90
2023-11-27T08:34:39.758Z,10.00
2023-11-27T08:35:39.625Z,7.70
2023-11-27T08:36:40.591Z,5.80
2023-11-27T08:37:39.609Z,8.50
2023-11-27T08:38:39.603Z,17.10
2023-11-27T08:39:39.510Z,7.40
2023-11-27T08:40:39.531Z,8.50
2023-11-27T08:41:39.446Z,6.50
2023-11-27T08:42:39.541Z,9.20
2023-11-27T08:43:39.425Z,10.00
2023-11-27T08:44:39.427Z,9.20
2023-11-27T08:45:39.333Z,7.70
2023-11-27T08:46:39.412Z,5.40
2023-11-27T08:47:39.296Z,5.10
2023-11-27T08:48:39.259Z,4.40
2023-11-27T08:49:46.508Z,4.90
2023-11-27T08:51:43.245Z,5.10
2023-11-27T08:52:43.163Z,4.90
2023-11-27T08:53:43.225Z,4.60
2023-11-27T08:54:43.139Z,4.30
2023-11-27T08:55:43.164Z,4.90
2023-11-27T08:56:43.045Z,5.10
2023-11-27T08:57:43.058Z,5.00
2023-11-27T08:58:43.037Z,4.70
2023-11-27T08:59:43.987Z,5.60
2023-11-27T09:00:42.937Z,4.70
2023-11-27T09:01:43.056Z,4.10
2023-11-27T09:02:42.915Z,4.10
2023-11-27T09:03:42.938Z,5.20
2023-11-27T09:04:42.839Z,5.60
2023-11-27T09:05:42.905Z,5.00
2023-11-27T09:06:42.762Z,5.60
2023-11-27T09:07:42.814Z,5.20
2023-11-27T09:08:42.723Z,5.10
2023-11-27T09:09:42.684Z,4.60
2023-11-27T09:10:42.733Z,6.70
2023-11-27T09:11:42.700Z,4.30
2023-11-27T09:12:42.589Z,5.00
2023-11-27T09:13:42.612Z,5.10
2023-11-27T09:14:42.536Z,5.10
2023-11-27T09:15:42.503Z,4.30
2023-11-27T09:16:42.511Z,4.50
2023-11-27T09:17:42.502Z,4.60
2023-11-27T09:18:42.415Z,4.70
2023-11-27T09:19:42.385Z,5.90
2023-11-27T09:20:42.350Z,4.20
2023-11-27T09:21:42.329Z,5.70
2023-11-27T09:22:42.318Z,5.00
2023-11-27T09:23:42.261Z,4.40
2023-11-27T09:24:42.241Z,5.80
2023-11-27T09:25:42.247Z,5.50
2023-11-27T09:26:42.179Z,3.80
2023-11-27T09:27:42.189Z,5.60
2023-11-27T09:28:42.122Z,5.40
2023-11-27T09:29:42.080Z,5.70
2023-11-27T09:30:42.059Z,4.50
2023-11-27T09:31:43.141Z,4.70
2023-11-27T09:32:42.128Z,5.40
2023-11-27T09:33:41.963Z,8.10
2023-11-27T09:34:41.941Z,9.30
2023-11-27T09:35:41.915Z,5.40
2023-11-27T09:36:46.967Z,4.70
2023-11-27T09:37:41.883Z,4.90
2023-11-27T09:38:41.832Z,5.60
2023-11-27T09:39:41.792Z,4.90
2023-11-27T09:40:41.795Z,5.70
2023-11-27T09:41:41.735Z,6.90
2023-11-27T09:42:46.786Z,4.40
2023-11-27T09:43:41.703Z,4.00
2023-11-27T09:44:41.642Z,4.80
2023-11-27T09:45:41.618Z,4.40
2023-11-27T09:46:41.618Z,4.70
2023-11-27T09:47:41.612Z,4.70
2023-11-27T09:48:41.544Z,4.30
2023-11-27T09:49:41.524Z,3.80
2023-11-27T09:50:41.485Z,3.90
2023-11-27T09:51:41.437Z,4.50
2023-11-27T09:52:41.506Z,4.80
2023-11-27T09:53:41.384Z,4.60
2023-11-27T09:54:41.353Z,6.50
2023-11-27T09:55:41.819Z,5.60
2023-11-27T09:56:41.317Z,6.50
2023-11-27T09:57:41.259Z,5.80
2023-11-27T09:58:41.261Z,4.90
2023-11-27T09:59:41.299Z,4.90
2023-11-27T10:00:41.222Z,3.60
2023-11-27T10:01:41.256Z,5.70
2023-11-27T10:02:41.360Z,6.60
2023-11-27T10:03:41.105Z,9.80
2023-11-27T10:04:41.268Z,10.60
2023-11-27T10:05:41.032Z,6.20
2023-11-27T10:06:41.042Z,7.40
2023-11-27T10:07:40.966Z,6.70
2023-11-27T10:08:40.954Z,5.80
2023-11-27T10:09:40.908Z,5.50
2023-11-27T10:10:40.999Z,6.50
2023-11-27T10:11:40.841Z,6.40
2023-11-27T10:12:40.878Z,5.30
2023-11-27T10:13:52.272Z,6.80
2023-11-27T10:14:40.794Z,5.80
2023-11-27T10:15:40.819Z,5.30
2023-11-27T10:16:40.704Z,4.30
2023-11-27T10:17:40.826Z,4.00
2023-11-27T10:18:40.769Z,4.20
2023-11-27T10:19:40.671Z,2.50
2023-11-27T10:20:40.600Z,2.90
2023-11-27T10:21:40.636Z,2.80
2023-11-27T10:22:40.532Z,4.10
2023-11-27T10:23:40.557Z,3.20
2023-11-27T10:24:40.468Z,2.50
2023-11-27T10:25:40.519Z,2.80
2023-11-27T10:26:40.407Z,2.90
2023-11-27T10:27:40.476Z,2.90
2023-11-27T10:28:40.424Z,2.20
2023-11-27T10:29:40.386Z,2.10
2023-11-27T10:30:40.313Z,2.40
2023-11-27T10:31:40.390Z,2.10
2023-11-27T10:32:40.298Z,3.00
2023-11-27T10:33:40.312Z,2.10
2023-11-27T10:34:40.215Z,1.90
2023-11-27T10:35:40.225Z,1.60
2023-11-27T10:36:40.123Z,2.00
2023-11-27T10:37:40.183Z,3.30
2023-11-27T10:38:40.166Z,3.60
2023-11-27T10:39:40.051Z,2.50
2023-11-27T10:40:40.054Z,2.80
2023-11-27T10:41:40.087Z,3.30
2023-11-27T10:42:43.174Z,2.30
2023-11-27T10:43:40.047Z,1.90
2023-11-27T10:44:39.911Z,2.10
2023-11-27T10:45:39.887Z,1.90
2023-11-27T10:46:39.887Z,2.70
2023-11-27T10:47:39.930Z,2.50
2023-11-27T10:48:44.381Z,1.80
2023-11-27T10:49:40.025Z,2.30
2023-11-27T10:50:39.718Z,3.30
2023-11-27T10:51:39.724Z,2.40
2023-11-27T10:52:39.652Z,2.10
2023-11-27T10:53:40.958Z,1.70
2023-11-27T10:54:39.601Z,2.20
2023-11-27T10:55:39.744Z,2.20
2023-11-27T10:56:39.548Z,1.90
2023-11-27T10:57:39.580Z,3.50
2023-11-27T10:58:39.564Z,2.10
2023-11-27T10:59:39.496Z,2.10
2023-11-27T11:00:39.432Z,3.00
2023-11-27T11:01:39.643Z,2.60
2023-11-27T11:02:39.417Z,5.30
2023-11-27T11:03:39.456Z,2.90
2023-11-27T11:04:39.373Z,4.60
2023-11-27T11:05:39.310Z,3.10
2023-11-27T11:06:39.255Z,2.50
2023-11-27T11:07:39.280Z,2.20
2023-11-27T11:08:39.183Z,2.30
2023-11-27T11:09:39.240Z,2.00
2023-11-27T11:10:39.146Z,2.40
2023-11-27T11:11:39.157Z,2.20
2023-11-27T11:12:39.076Z,2.00
2023-11-27T11:13:39.141Z,2.30
2023-11-27T11:14:39.005Z,2.00
2023-11-27T11:15:39.088Z,1.80
2023-11-27T11:16:38.965Z,2.00
2023-11-27T11:17:39.025Z,1.90
2023-11-27T11:18:38.921Z,1.90
2023-11-27T11:19:38.939Z,1.70
2023-11-27T11:20:38.831Z,1.40
2023-11-27T11:21:38.912Z,1.40
2023-11-27T11:22:38.847Z,1.50
2023-11-27T11:23:38.825Z,1.60
2023-11-27T11:24:38.712Z,1.70
2023-11-27T11:25:38.783Z,1.60
2023-11-27T11:26:47.146Z,2.30
2023-11-27T11:27:38.629Z,1.40
2023-11-27T11:28:38.711Z,1.90
2023-11-27T11:29:38.572Z,2.50
2023-11-27T11:30:38.593Z,1.60
2023-11-27T11:31:38.545Z,1.50
2023-11-27T11:32:38.581Z,1.90
2023-11-27T11:33:38.458Z,1.40
2023-11-27T11:34:38.599Z,2.00
2023-11-27T11:35:38.395Z,1.70
2023-11-27T11:36:38.410Z,1.50
2023-11-27T11:37:38.403Z,2.40
2023-11-27T11:38:38.333Z,3.70
2023-11-27T11:39:38.304Z,2.20
2023-11-27T11:40:38.372Z,1.60
2023-11-27T11:41:38.222Z,1.60
2023-11-27T11:42:38.341Z,1.80
2023-11-27T11:43:38.196Z,1.80
2023-11-27T11:44:38.156Z,1.90
2023-11-27T11:45:38.102Z,2.20
2023-11-27T11:46:38.246Z,2.10
2023-11-27T11:47:38.063Z,2.60
2023-11-27T11:48:38.109Z,2.00
2023-11-27T11:49:38.059Z,2.10
2023-11-27T11:50:37.991Z,2.70
2023-11-27T11:51:37.924Z,2.80
2023-11-27T11:52:38.002Z,1.70
2023-11-27T11:53:37.876Z,2.50
2023-11-27T11:54:37.917Z,1.90
2023-11-27T11:55:37.817Z,2.30
2023-11-27T11:56:37.838Z,1.40
2023-11-27T11:57:37.751Z,1.60
2023-11-27T11:58:37.815Z,1.40
2023-11-27T11:59:37.690Z,2.10
2023-11-27T12:00:37.761Z,1.70
2023-11-27T12:01:37.682Z,2.00
2023-11-27T12:02:37.751Z,2.40
2023-11-27T12:03:37.635Z,1.40
2023-11-27T12:04:37.645Z,1.70
2023-11-27T12:05:37.545Z,2.30
2023-11-27T12:06:37.505Z,2.80
2023-11-27T12:07:37.476Z,2.30
2023-11-27T12:08:37.504Z,3.20
2023-11-27T12:09:37.426Z,3.30
2023-11-27T12:10:37.480Z,3.00
2023-11-27T12:11:40.654Z,2.30
2023-11-27T12:12:37.336Z,3.50
2023-11-27T12:13:37.954Z,5.30
2023-11-27T12:14:37.343Z,4.30
2023-11-27T12:15:37.229Z,12.80
2023-11-27T12:16:37.370Z,3.60
2023-11-27T12:17:37.272Z,4.00
2023-11-27T12:18:37.268Z,2.00
2023-11-27T12:19:37.143Z,3.50
2023-11-27T12:20:37.207Z,2.00
2023-11-27T12:21:37.049Z,3.00
2023-11-27T12:22:37.171Z,1.90
2023-11-27T12:23:36.989Z,3.90
2023-11-27T12:24:37.011Z,2.10
2023-11-27T12:25:36.969Z,2.10
2023-11-27T12:26:36.930Z,2.00
2023-11-27T12:27:36.873Z,3.00
2023-11-27T12:28:36.956Z,1.90
2023-11-27T12:29:36.821Z,4.20
2023-11-27T12:30:36.841Z,2.40
2023-11-27T12:31:36.834Z,3.10
2023-11-27T12:32:36.764Z,2.40
2023-11-27T12:33:36.709Z,2.70
2023-11-27T12:34:36.841Z,4.60
2023-11-27T12:35:36.661Z,4.00
2023-11-27T12:36:36.684Z,2.70
2023-11-27T12:37:36.615Z,2.80
2023-11-27T12:38:36.629Z,3.00
2023-11-27T12:39:36.555Z,2.00
2023-11-27T12:40:37.121Z,2.50
2023-11-27T12:41:36.853Z,3.00
2023-11-27T12:42:36.520Z,4.00
2023-11-27T12:43:36.462Z,2.60
2023-11-27T12:44:36.459Z,2.70
2023-11-27T12:45:36.449Z,2.60
2023-11-27T12:46:36.404Z,2.20
2023-11-27T12:47:36.466Z,1.80
2023-11-27T12:48:36.377Z,2.90
2023-11-27T12:49:36.342Z,2.20
2023-11-27T12:50:36.306Z,3.50
2023-11-27T12:51:36.185Z,3.40
2023-11-27T12:52:36.226Z,4.30
2023-11-27T12:53:36.136Z,2.40
2023-11-27T12:54:36.205Z,2.90
2023-11-27T12:55:36.159Z,3.80
2023-11-27T12:56:36.189Z,3.10
2023-11-27T12:57:36.020Z,2.30
2023-11-27T12:58:36.038Z,1.90
2023-11-27T12:59:35.950Z,1.80
2023-11-27T13:00:36.032Z,2.30
2023-11-27T13:01:35.966Z,1.70
2023-11-27T13:02:36.079Z,2.40
2023-11-27T13:03:35.862Z,2.20
2023-11-27T13:04:35.902Z,2.00
2023-11-27T13:05:35.779Z,2.10
2023-11-27T13:06:35.768Z,2.30
2023-11-27T13:07:35.747Z,2.30
2023-11-27T13:08:35.784Z,2.70
2023-11-27T13:09:35.694Z,3.30
2023-11-27T13:10:35.751Z,4.10
2023-11-27T13:11:35.625Z,2.70
2023-11-27T13:12:35.621Z,2.70
2023-11-27T13:13:35.562Z,2.80
2023-11-27T13:14:35.635Z,3.00